createdAt,value
2023-04-16T14:45:32.476Z,2.50
2023-04-16T14:47:59.134Z,3.55
2023-04-16T14:50:25.774Z,5.57
2023-04-16T14:52:55.841Z,4.68
2023-04-16T14:55:22.486Z,3.53
2023-04-16T14:57:49.132Z,3.15
2023-04-16T15:00:18.816Z,2.90
2023-04-16T15:02:47.256Z,2.83
2023-04-16T15:05:14.206Z,2.15
2023-04-16T15:07:42.097Z,2.47
2023-04-16T15:10:17.256Z,2.15
2023-04-16T15:12:44.162Z,2.20
2023-04-16T15:15:12.941Z,2.53
2023-04-16T15:17:39.743Z,2.28
2023-04-16T15:20:09.846Z,2.38
2023-04-16T15:22:36.618Z,3.00
2023-04-16T15:25:06.540Z,2.60
2023-04-16T15:27:33.307Z,3.00
2023-04-16T15:29:59.943Z,3.10
2023-04-16T15:32:28.987Z,3.67
2023-04-16T15:35:01.350Z,3.42
2023-04-16T15:37:27.968Z,3.33
2023-04-16T15:39:56.811Z,3.42
2023-04-16T15:42:24.292Z,5.50
2023-04-16T15:44:51.857Z,6.88
2023-04-16T15:47:18.537Z,7.10
2023-04-16T15:49:45.182Z,6.88
2023-04-16T15:52:14.526Z,7.50
2023-04-16T15:54:41.302Z,8.43
2023-04-16T15:57:09.279Z,9.85
2023-04-16T15:59:36.079Z,7.90
2023-04-16T16:02:06.027Z,6.13
2023-04-16T16:04:34.107Z,7.20
2023-04-16T16:07:02.898Z,8.32
2023-04-16T16:09:30.580Z,7.78
2023-04-16T16:12:02.506Z,7.32
2023-04-16T16:14:29.125Z,7.38
2023-04-16T16:16:58.601Z,7.88
2023-04-16T16:19:29.089Z,6.85
2023-04-16T16:21:55.970Z,9.30
2023-04-16T16:24:24.760Z,9.50
2023-04-16T16:26:51.428Z,8.93
2023-04-16T16:29:17.993Z,9.38
2023-04-16T16:31:46.609Z,8.88
2023-04-16T16:34:21.469Z,8.63
2023-04-16T16:36:48.874Z,9.40
2023-04-16T16:39:19.191Z,11.40
2023-04-16T16:41:45.853Z,13.13
2023-04-16T16:44:13.289Z,13.00
2023-04-16T16:46:40.314Z,12.60
2023-04-16T16:49:11.751Z,11.50
2023-04-16T16:51:43.254Z,12.15
2023-04-16T16:54:10.018Z,14.63
2023-04-16T16:56:39.115Z,16.52
2023-04-16T16:59:06.294Z,16.73
2023-04-16T17:01:33.196Z,23.00
2023-04-16T17:04:00.424Z,31.00
2023-04-16T17:06:27.361Z,32.45
2023-04-16T17:08:53.979Z,33.10
2023-04-16T17:11:23.044Z,35.60
2023-04-16T17:13:49.849Z,41.97
2023-04-16T17:16:17.763Z,55.85
2023-04-16T17:18:44.444Z,46.58
2023-04-16T17:21:14.584Z,43.53
2023-04-16T17:23:42.908Z,40.45
2023-04-16T17:26:14.017Z,41.45
2023-04-16T17:28:40.919Z,54.05
2023-04-16T17:31:09.617Z,56.65
2023-04-16T17:33:39.254Z,42.88
2023-04-16T17:36:07.356Z,39.80
2023-04-16T17:38:36.879Z,36.00
2023-04-16T17:41:03.500Z,35.28
2023-04-16T17:43:42.062Z,36.72
2023-04-16T17:46:14.544Z,35.30
2023-04-16T17:48:41.321Z,41.63
2023-04-16T17:51:11.850Z,52.97
2023-04-16T17:53:42.738Z,50.08
2023-04-16T17:56:12.713Z,46.70
2023-04-16T17:58:39.345Z,40.40
2023-04-16T18:01:06.573Z,44.60
2023-04-16T18:03:33.617Z,41.65
2023-04-16T18:06:00.802Z,43.55
2023-04-16T18:08:27.913Z,44.97
2023-04-16T18:10:57.950Z,39.92
2023-04-16T18:13:26.846Z,36.85
2023-04-16T18:15:53.924Z,34.95
2023-04-16T18:18:24.783Z,37.08
2023-04-16T18:20:53.853Z,37.05
2023-04-16T18:23:22.687Z,35.15
2023-04-16T18:25:49.307Z,29.52
2023-04-16T18:28:17.641Z,30.75
2023-04-16T18:30:44.349Z,31.65
2023-04-16T18:33:42.719Z,28.17
2023-04-16T18:36:09.847Z,33.10
2023-04-16T18:38:49.434Z,42.45
2023-04-16T18:41:23.245Z,37.15
2023-04-16T18:43:50.982Z,42.53
2023-04-16T18:46:17.927Z,49.83
2023-04-16T18:48:45.376Z,49.45
2023-04-16T18:51:13.633Z,38.13
2023-04-16T18:53:44.377Z,33.13
2023-04-16T18:56:12.513Z,34.03
2023-04-16T18:58:43.477Z,29.83
2023-04-16T19:01:13.056Z,17.73
2023-04-16T19:03:40.963Z,12.52
2023-04-16T19:06:08.122Z,14.60
2023-04-16T19:08:35.065Z,20.45
2023-04-16T19:11:04.549Z,22.00
2023-04-16T19:13:33.695Z,17.77
2023-04-16T19:16:01.694Z,26.42
2023-04-16T19:18:31.546Z,27.92
2023-04-16T19:21:04.064Z,22.30
2023-04-16T19:23:30.682Z,21.60
2023-04-16T19:25:57.847Z,23.25
2023-04-16T19:28:25.275Z,16.70
2023-04-16T19:30:52.765Z,11.40
2023-04-16T19:33:19.732Z,11.50
2023-04-16T19:35:47.086Z,10.05
2023-04-16T19:38:13.709Z,10.48
2023-04-16T19:40:43.143Z,9.50
2023-04-16T19:43:10.074Z,9.43
2023-04-16T19:45:42.866Z,9.65
2023-04-16T19:48:12.121Z,9.45
2023-04-16T19:50:40.644Z,9.93
2023-04-16T19:53:11.582Z,9.20
2023-04-16T19:55:42.960Z,11.38
2023-04-16T19:58:09.914Z,11.15
2023-04-16T20:00:38.582Z,10.50
2023-04-16T20:03:05.671Z,11.48
2023-04-16T20:05:32.319Z,12.35
2023-04-16T20:07:58.951Z,12.73
2023-04-16T20:10:26.696Z,13.68
2023-04-16T20:13:02.681Z,16.27
2023-04-16T20:15:29.316Z,20.63
2023-04-16T20:17:56.395Z,18.27
2023-04-16T20:20:25.597Z,17.73
2023-04-16T20:22:52.672Z,16.60
2023-04-16T20:25:19.494Z,16.95
2023-04-16T20:27:46.353Z,16.92
2023-04-16T20:30:16.655Z,17.20
2023-04-16T20:32:43.409Z,19.23
2023-04-16T20:35:11.362Z,20.30
2023-04-16T20:37:38.710Z,18.88
2023-04-16T20:40:08.332Z,19.83
2023-04-16T20:42:35.249Z,19.38
2023-04-16T20:45:02.180Z,18.90
2023-04-16T20:47:28.785Z,21.55
2023-04-16T20:49:55.457Z,21.92
2023-04-16T20:52:25.896Z,21.58
2023-04-16T20:54:52.504Z,19.95
2023-04-16T20:57:19.198Z,21.42
2023-04-16T20:59:46.130Z,21.92
2023-04-16T21:02:15.079Z,22.20
2023-04-16T21:04:41.867Z,23.48
2023-04-16T21:07:08.591Z,22.15
2023-04-16T21:09:35.178Z,22.35
2023-04-16T21:12:02.755Z,23.48
2023-04-16T21:14:29.397Z,20.45
2023-04-16T21:16:56.049Z,20.05
2023-04-16T21:19:22.656Z,20.20
2023-04-16T21:21:49.379Z,21.35
2023-04-16T21:24:15.967Z,19.52
2023-04-16T21:26:42.744Z,19.65
2023-04-16T21:29:09.418Z,18.25
2023-04-16T21:31:36.117Z,20.30
2023-04-16T21:34:02.776Z,18.55
2023-04-16T21:36:32.066Z,20.67
2023-04-16T21:38:58.698Z,20.40
2023-04-16T21:41:25.261Z,21.83
2023-04-16T21:43:51.883Z,20.67
2023-04-16T21:46:21.495Z,19.83
2023-04-16T21:48:48.568Z,14.15
2023-04-16T21:51:16.789Z,13.15
2023-04-16T21:53:43.595Z,14.00
2023-04-16T21:56:10.205Z,13.88
2023-04-16T21:58:36.788Z,12.75
2023-04-16T22:01:03.408Z,12.93
2023-04-16T22:03:31.182Z,17.50
2023-04-16T22:06:01.039Z,14.70
2023-04-16T22:08:31.067Z,14.10
2023-04-16T22:10:59.327Z,14.25
2023-04-16T22:13:26.413Z,14.93
2023-04-16T22:15:55.536Z,13.98
2023-04-16T22:18:25.457Z,13.70
2023-04-16T22:20:55.892Z,13.55
2023-04-16T22:23:23.716Z,13.70
2023-04-16T22:25:50.732Z,13.32
2023-04-16T22:28:17.437Z,11.82
2023-04-16T22:30:44.047Z,10.82
2023-04-16T22:33:11.272Z,12.30
2023-04-16T22:35:41.404Z,11.27
2023-04-16T22:38:08.090Z,10.98
2023-04-16T22:40:34.682Z,11.13
2023-04-16T22:43:01.330Z,11.60
2023-04-16T22:45:27.995Z,11.80
2023-04-16T22:47:54.624Z,11.32
2023-04-16T22:50:22.642Z,11.82
2023-04-16T22:52:49.260Z,12.27
2023-04-16T22:55:16.120Z,12.93
2023-04-16T22:57:43.508Z,12.30
2023-04-16T23:00:16.045Z,10.45
2023-04-16T23:02:43.239Z,11.68
2023-04-16T23:05:11.756Z,10.20
2023-04-16T23:07:38.674Z,9.20
2023-04-16T23:10:05.852Z,9.52
2023-04-16T23:12:32.555Z,8.82
2023-04-16T23:15:00.842Z,8.55
2023-04-16T23:17:28.183Z,9.45
2023-04-16T23:19:57.186Z,10.18
2023-04-16T23:22:23.808Z,10.00
2023-04-16T23:24:50.545Z,8.45
2023-04-16T23:27:18.718Z,8.30
2023-04-16T23:29:45.394Z,8.23
2023-04-16T23:32:11.940Z,8.77
2023-04-16T23:34:38.547Z,8.40
2023-04-16T23:37:05.168Z,8.65
2023-04-16T23:39:31.797Z,8.07
2023-04-16T23:41:59.958Z,8.65
2023-04-16T23:44:27.384Z,9.05
2023-04-16T23:46:54.067Z,8.38
2023-04-16T23:49:20.930Z,8.70
2023-04-16T23:51:47.568Z,8.32
2023-04-16T23:54:14.848Z,8.70
2023-04-16T23:56:41.593Z,9.40
2023-04-16T23:59:10.872Z,8.27
